sensor_id;sensor_type;location;lat;lon;timestamp;pressure;altitude;pressure_sealevel;temperature;humidity
41306;BME280;27051;50.376;19.152;2022-07-29T00:00:11;98482.89;;;18.25;49.14
41306;BME280;27051;50.376;19.152;2022-07-29T00:02:41;98490.47;;;18.25;49.16
41306;BME280;27051;50.376;19.152;2022-07-29T00:05:09;98480.17;;;18.25;49.10
41306;BME280;27051;50.376;19.152;2022-07-29T00:07:36;98484.63;;;18.23;49.26
41306;BME280;27051;50.376;19.152;2022-07-29T00:10:03;98484.44;;;18.22;49.24
41306;BME280;27051;50.376;19.152;2022-07-29T00:12:31;98484.03;;;18.20;49.40
41306;BME280;27051;50.376;19.152;2022-07-29T00:14:58;98490.23;;;18.17;49.43
41306;BME280;27051;50.376;19.152;2022-07-29T00:17:25;98485.94;;;18.16;49.64
41306;BME280;27051;50.376;19.152;2022-07-29T00:19:52;98488.11;;;18.20;49.71
41306;BME280;27051;50.376;19.152;2022-07-29T00:22:20;98492.98;;;18.24;49.73
41306;BME280;27051;50.376;19.152;2022-07-29T00:24:48;98489.70;;;18.28;49.86
41306;BME280;27051;50.376;19.152;2022-07-29T00:27:14;98482.31;;;18.25;50.02
41306;BME280;27051;50.376;19.152;2022-07-29T00:29:41;98479.17;;;18.19;50.06
41306;BME280;27051;50.376;19.152;2022-07-29T00:32:08;98474.11;;;18.21;50.02
41306;BME280;27051;50.376;19.152;2022-07-29T00:34:34;98479.36;;;18.20;49.95
41306;BME280;27051;50.376;19.152;2022-07-29T00:37:01;98473.11;;;18.16;50.04
41306;BME280;27051;50.376;19.152;2022-07-29T00:39:27;98475.28;;;18.17;50.05
41306;BME280;27051;50.376;19.152;2022-07-29T00:41:54;98472.34;;;18.16;50.12
41306;BME280;27051;50.376;19.152;2022-07-29T00:44:21;98477.19;;;18.16;50.11
41306;BME280;27051;50.376;19.152;2022-07-29T00:46:47;98472.91;;;18.12;50.03
41306;BME280;27051;50.376;19.152;2022-07-29T00:49:16;98470.55;;;18.07;50.21
41306;BME280;27051;50.376;19.152;2022-07-29T00:51:43;98465.12;;;18.07;50.26
41306;BME280;27051;50.376;19.152;2022-07-29T00:54:09;98470.74;;;18.08;50.19
41306;BME280;27051;50.376;19.152;2022-07-29T00:56:37;98468.02;;;18.08;50.23
41306;BME280;27051;50.376;19.152;2022-07-29T00:59:03;98467.07;;;18.10;50.23
41306;BME280;27051;50.376;19.152;2022-07-29T01:01:30;98461.05;;;18.14;50.13
41306;BME280;27051;50.376;19.152;2022-07-29T01:03:56;98458.69;;;18.09;50.25
41306;BME280;27051;50.376;19.152;2022-07-29T01:06:24;98455.16;;;18.01;50.34
41306;BME280;27051;50.376;19.152;2022-07-29T01:08:51;98454.19;;;17.99;50.31
41306;BME280;27051;50.376;19.152;2022-07-29T01:11:18;98456.09;;;17.95;50.51
41306;BME280;27051;50.376;19.152;2022-07-29T01:13:46;98455.31;;;17.91;50.60
41306;BME280;27051;50.376;19.152;2022-07-29T01:16:25;98454.14;;;17.92;50.68
41306;BME280;27051;50.376;19.152;2022-07-29T01:19:01;98455.08;;;17.87;50.63
41306;BME280;27051;50.376;19.152;2022-07-29T01:29:58;98451.29;;;18.02;50.64
41306;BME280;27051;50.376;19.152;2022-07-29T01:32:29;98453.61;;;18.04;50.52
41306;BME280;27051;50.376;19.152;2022-07-29T01:35:26;98451.70;;;18.08;50.38
41306;BME280;27051;50.376;19.152;2022-07-29T01:43:23;98435.98;;;18.11;50.35
41306;BME280;27051;50.376;19.152;2022-07-29T01:46:14;98440.66;;;18.14;50.27
41306;BME280;27051;50.376;19.152;2022-07-29T01:48:47;98442.45;;;18.19;50.27
41306;BME280;27051;50.376;19.152;2022-07-29T01:51:24;98440.28;;;18.15;50.26
41306;BME280;27051;50.376;19.152;2022-07-29T01:53:54;98437.97;;;18.17;50.35
41306;BME280;27051;50.376;19.152;2022-07-29T01:56:33;98437.20;;;18.20;50.05
41306;BME280;27051;50.376;19.152;2022-07-29T01:59:03;98431.98;;;18.25;50.12
41306;BME280;27051;50.376;19.152;2022-07-29T02:01:33;98439.92;;;18.24;49.77
41306;BME280;27051;50.376;19.152;2022-07-29T02:04:03;98428.86;;;18.23;50.14
41306;BME280;27051;50.376;19.152;2022-07-29T02:06:33;98432.93;;;18.19;50.29
41306;BME280;27051;50.376;19.152;2022-07-29T02:09:03;98428.45;;;18.21;50.26
41306;BME280;27051;50.376;19.152;2022-07-29T02:11:33;98423.41;;;18.23;50.27
41306;BME280;27051;50.376;19.152;2022-07-29T02:14:01;98423.41;;;18.23;50.13
41306;BME280;27051;50.376;19.152;2022-07-29T02:16:32;98425.77;;;18.25;50.15
41306;BME280;27051;50.376;19.152;2022-07-29T02:19:02;98420.52;;;18.26;50.04
41306;BME280;27051;50.376;19.152;2022-07-29T02:21:32;98425.77;;;18.28;50.26
41306;BME280;27051;50.376;19.152;2022-07-29T02:24:01;98423.86;;;18.32;49.92
41306;BME280;27051;50.376;19.152;2022-07-29T02:26:29;98425.03;;;18.35;49.72
41306;BME280;27051;50.376;19.152;2022-07-29T02:28:59;98417.64;;;18.35;49.59
41306;BME280;27051;50.376;19.152;2022-07-29T02:31:30;98420.17;;;18.38;49.82
41306;BME280;27051;50.376;19.152;2022-07-29T02:34:01;98424.05;;;18.33;49.71
41306;BME280;27051;50.376;19.152;2022-07-29T02:36:30;98420.36;;;18.35;49.81
41306;BME280;27051;50.376;19.152;2022-07-29T02:38:58;98420.17;;;18.38;49.96
41306;BME280;27051;50.376;19.152;2022-07-29T02:41:33;98411.24;;;18.41;49.69
41306;BME280;27051;50.376;19.152;2022-07-29T02:44:08;98412.42;;;18.43;49.66
41306;BME280;27051;50.376;19.152;2022-07-29T02:46:37;98413.00;;;18.47;49.63
41306;BME280;27051;50.376;19.152;2022-07-29T02:52:23;98409.70;;;18.43;49.39
41306;BME280;27051;50.376;19.152;2022-07-29T02:55:07;98411.06;;;18.43;49.46
41306;BME280;27051;50.376;19.152;2022-07-29T02:57:47;98409.14;;;18.48;49.49
41306;BME280;27051;50.376;19.152;2022-07-29T03:00:31;98412.02;;;18.41;49.75
41306;BME280;27051;50.376;19.152;2022-07-29T03:03:01;98410.47;;;18.40;49.46
41306;BME280;27051;50.376;19.152;2022-07-29T03:05:30;98406.58;;;18.41;49.31
41306;BME280;27051;50.376;19.152;2022-07-29T03:08:03;98407.75;;;18.44;49.23
41306;BME280;27051;50.376;19.152;2022-07-29T03:10:31;98414.37;;;18.47;49.03
41306;BME280;27051;50.376;19.152;2022-07-29T03:13:00;98417.30;;;18.51;49.03
41306;BME280;27051;50.376;19.152;2022-07-29T03:15:28;98415.58;;;18.53;48.83
41306;BME280;27051;50.376;19.152;2022-07-29T03:17:55;98420.24;;;18.56;48.86
41306;BME280;27051;50.376;19.152;2022-07-29T03:20:24;98411.89;;;18.58;48.80
41306;BME280;27051;50.376;19.152;2022-07-29T03:22:51;98412.08;;;18.59;48.58
41306;BME280;27051;50.376;19.152;2022-07-29T03:25:19;98410.16;;;18.60;48.56
41306;BME280;27051;50.376;19.152;2022-07-29T03:27:48;98414.05;;;18.66;48.50
41306;BME280;27051;50.376;19.152;2022-07-29T03:30:16;98414.84;;;18.70;48.47
41306;BME280;27051;50.376;19.152;2022-07-29T03:32:43;98409.41;;;18.70;48.25
41306;BME280;27051;50.376;19.152;2022-07-29T03:35:09;98409.59;;;18.71;48.22
41306;BME280;27051;50.376;19.152;2022-07-29T03:37:37;98411.00;;;18.78;48.16
41306;BME280;27051;50.376;19.152;2022-07-29T03:40:06;98404.59;;;18.80;48.21
41306;BME280;27051;50.376;19.152;2022-07-29T03:42:36;98404.38;;;18.79;48.07
41306;BME280;27051;50.376;19.152;2022-07-29T03:45:11;98403.98;;;18.77;47.93
41306;BME280;27051;50.376;19.152;2022-07-29T03:47:40;98409.42;;;18.77;48.02
41306;BME280;27051;50.376;19.152;2022-07-29T03:50:11;98408.87;;;18.78;47.89
41306;BME280;27051;50.376;19.152;2022-07-29T03:52:38;98413.91;;;18.79;47.87
41306;BME280;27051;50.376;19.152;2022-07-29T03:55:07;98414.49;;;18.82;47.90
41306;BME280;27051;50.376;19.152;2022-07-29T03:57:36;98410.22;;;18.85;47.87
41306;BME280;27051;50.376;19.152;2022-07-29T04:00:06;98400.50;;;18.87;47.75
41306;BME280;27051;50.376;19.152;2022-07-29T04:02:34;98391.95;;;18.89;47.64
41306;BME280;27051;50.376;19.152;2022-07-29T04:05:02;98395.27;;;18.89;47.61
41306;BME280;27051;50.376;19.152;2022-07-29T04:07:30;98396.22;;;18.90;47.57
41306;BME280;27051;50.376;19.152;2022-07-29T04:09:57;98396.22;;;18.90;47.71
41306;BME280;27051;50.376;19.152;2022-07-29T04:12:23;98392.14;;;18.90;47.58
41306;BME280;27051;50.376;19.152;2022-07-29T04:14:50;98398.95;;;18.90;47.60
41306;BME280;27051;50.376;19.152;2022-07-29T04:17:16;98399.94;;;18.92;47.63
41306;BME280;27051;50.376;19.152;2022-07-29T04:19:43;98396.25;;;18.94;47.59
41306;BME280;27051;50.376;19.152;2022-07-29T04:22:10;98395.84;;;18.95;47.51
41306;BME280;27051;50.376;19.152;2022-07-29T04:24:36;98404.03;;;18.99;47.46
41306;BME280;27051;50.376;19.152;2022-07-29T04:27:03;98404.80;;;18.99;47.39
41306;BME280;27051;50.376;19.152;2022-07-29T04:29:30;98402.29;;;19.04;47.43
41306;BME280;27051;50.376;19.152;2022-07-29T04:31:56;98405.98;;;19.13;47.60
41306;BME280;27051;50.376;19.152;2022-07-29T04:34:23;98397.24;;;19.24;47.62
41306;BME280;27051;50.376;19.152;2022-07-29T04:36:50;98406.40;;;19.36;47.40
41306;BME280;27051;50.376;19.152;2022-07-29T04:39:16;98398.00;;;19.46;47.31
41306;BME280;27051;50.376;19.152;2022-07-29T04:41:43;98397.20;;;19.56;47.16
41306;BME280;27051;50.376;19.152;2022-07-29T04:44:10;98398.79;;;19.68;46.81
41306;BME280;27051;50.376;19.152;2022-07-29T04:46:36;98398.97;;;19.80;46.93
41306;BME280;27051;50.376;19.152;2022-07-29T04:49:03;98399.69;;;19.94;46.99
41306;BME280;27051;50.376;19.152;2022-07-29T04:51:30;98394.80;;;20.08;46.57
41306;BME280;27051;50.376;19.152;2022-07-29T04:53:57;98398.05;;;20.22;46.75
41306;BME280;27051;50.376;19.152;2022-07-29T04:56:23;98397.81;;;20.35;46.76
41306;BME280;27051;50.376;19.152;2022-07-29T04:58:50;98388.98;;;20.47;46.41
41306;BME280;27051;50.376;19.152;2022-07-29T05:01:17;98395.56;;;20.53;46.21
41306;BME280;27051;50.376;19.152;2022-07-29T05:03:44;98392.83;;;20.60;46.24
41306;BME280;27051;50.376;19.152;2022-07-29T05:06:11;98398.47;;;20.65;46.13
41306;BME280;27051;50.376;19.152;2022-07-29T05:08:38;98394.72;;;20.74;46.24
41306;BME280;27051;50.376;19.152;2022-07-29T05:11:05;98399.52;;;20.85;46.14
41306;BME280;27051;50.376;19.152;2022-07-29T05:13:31;98394.61;;;20.88;45.96
41306;BME280;27051;50.376;19.152;2022-07-29T05:15:58;98390.72;;;20.89;45.93
41306;BME280;27051;50.376;19.152;2022-07-29T05:18:25;98387.19;;;20.92;46.14
41306;BME280;27051;50.376;19.152;2022-07-29T05:20:52;98395.72;;;20.98;46.15
41306;BME280;27051;50.376;19.152;2022-07-29T05:23:18;98394.73;;;21.00;46.03
41306;BME280;27051;50.376;19.152;2022-07-29T05:25:45;98386.71;;;21.05;46.02
41306;BME280;27051;50.376;19.152;2022-07-29T05:28:12;98381.98;;;21.09;45.96
41306;BME280;27051;50.376;19.152;2022-07-29T05:30:39;98387.05;;;21.10;45.79
41306;BME280;27051;50.376;19.152;2022-07-29T05:33:05;98391.70;;;21.13;45.73
41306;BME280;27051;50.376;19.152;2022-07-29T05:35:32;98391.48;;;21.19;45.75
41306;BME280;27051;50.376;19.152;2022-07-29T05:37:58;98396.30;;;21.27;45.58
41306;BME280;27051;50.376;19.152;2022-07-29T05:40:25;98398.40;;;21.31;45.69
41306;BME280;27051;50.376;19.152;2022-07-29T05:42:51;98399.91;;;21.39;45.70
41306;BME280;27051;50.376;19.152;2022-07-29T05:45:18;98403.02;;;21.45;45.62
41306;BME280;27051;50.376;19.152;2022-07-29T05:47:45;98401.60;;;21.49;45.74
41306;BME280;27051;50.376;19.152;2022-07-29T05:50:11;98403.34;;;21.51;45.61
41306;BME280;27051;50.376;19.152;2022-07-29T05:52:39;98399.97;;;21.55;45.71
41306;BME280;27051;50.376;19.152;2022-07-29T05:55:05;98402.03;;;21.66;45.75
41306;BME280;27051;50.376;19.152;2022-07-29T05:57:32;98392.96;;;21.73;45.63
41306;BME280;27051;50.376;19.152;2022-07-29T05:59:59;98395.41;;;21.82;45.70
41306;BME280;27051;50.376;19.152;2022-07-29T06:02:26;98388.92;;;21.88;45.67
41306;BME280;27051;50.376;19.152;2022-07-29T06:04:52;98387.55;;;21.88;45.35
41306;BME280;27051;50.376;19.152;2022-07-29T06:07:19;98386.31;;;21.93;45.61
41306;BME280;27051;50.376;19.152;2022-07-29T06:09:46;98382.35;;;21.97;45.49
41306;BME280;27051;50.376;19.152;2022-07-29T06:12:13;98379.94;;;22.03;45.60
41306;BME280;27051;50.376;19.152;2022-07-29T06:14:39;98385.31;;;22.14;45.56
41306;BME280;27051;50.376;19.152;2022-07-29T06:17:06;98379.53;;;22.23;45.75
41306;BME280;27051;50.376;19.152;2022-07-29T06:19:34;98381.95;;;22.33;45.47
41306;BME280;27051;50.376;19.152;2022-07-29T06:22:02;98386.14;;;22.41;45.66
41306;BME280;27051;50.376;19.152;2022-07-29T06:24:29;98383.55;;;22.46;45.02
41306;BME280;27051;50.376;19.152;2022-07-29T06:26:56;98385.12;;;22.47;44.76
41306;BME280;27051;50.376;19.152;2022-07-29T06:29:22;98381.55;;;22.50;45.08
41306;BME280;27051;50.376;19.152;2022-07-29T06:31:49;98382.69;;;22.52;44.62
41306;BME280;27051;50.376;19.152;2022-07-29T06:34:22;98384.20;;;22.57;45.03
41306;BME280;27051;50.376;19.152;2022-07-29T06:36:49;98386.78;;;22.68;45.03
41306;BME280;27051;50.376;19.152;2022-07-29T06:39:15;98386.45;;;22.78;44.78
41306;BME280;27051;50.376;19.152;2022-07-29T06:41:47;98391.00;;;22.88;44.44
41306;BME280;27051;50.376;19.152;2022-07-29T06:44:15;98388.56;;;22.93;44.43
41306;BME280;27051;50.376;19.152;2022-07-29T06:46:43;98392.41;;;23.00;44.32
41306;BME280;27051;50.376;19.152;2022-07-29T06:49:10;98392.96;;;23.14;44.37
41306;BME280;27051;50.376;19.152;2022-07-29T06:51:37;98386.36;;;23.24;44.36
41306;BME280;27051;50.376;19.152;2022-07-29T06:54:03;98386.91;;;23.38;44.38
41306;BME280;27051;50.376;19.152;2022-07-29T06:56:31;98388.13;;;23.57;44.13
41306;BME280;27051;50.376;19.152;2022-07-29T06:58:58;98384.25;;;23.78;44.09
41306;BME280;27051;50.376;19.152;2022-07-29T07:01:24;98386.98;;;23.90;43.68
41306;BME280;27051;50.376;19.152;2022-07-29T07:03:51;98390.61;;;23.95;43.44
41306;BME280;27051;50.376;19.152;2022-07-29T07:06:18;98392.89;;;24.09;43.54
41306;BME280;27051;50.376;19.152;2022-07-29T07:08:44;98388.86;;;24.25;43.43
41306;BME280;27051;50.376;19.152;2022-07-29T07:11:11;98386.55;;;24.52;43.32
41306;BME280;27051;50.376;19.152;2022-07-29T07:13:38;98385.48;;;24.74;43.23
41306;BME280;27051;50.376;19.152;2022-07-29T07:16:04;98389.88;;;24.96;42.96
41306;BME280;27051;50.376;19.152;2022-07-29T07:18:31;98385.08;;;25.00;42.26
41306;BME280;27051;50.376;19.152;2022-07-29T07:20:58;98384.56;;;25.05;42.54
41306;BME280;27051;50.376;19.152;2022-07-29T07:23:25;98382.42;;;25.04;42.01
41306;BME280;27051;50.376;19.152;2022-07-29T07:25:52;98383.19;;;25.13;41.88
41306;BME280;27051;50.376;19.152;2022-07-29T07:28:19;98377.19;;;25.26;42.16
41306;BME280;27051;50.376;19.152;2022-07-29T07:30:45;98380.44;;;25.46;41.82
41306;BME280;27051;50.376;19.152;2022-07-29T07:33:12;98374.20;;;25.66;41.66
41306;BME280;27051;50.376;19.152;2022-07-29T07:35:41;98375.64;;;25.79;41.25
41306;BME280;27051;50.376;19.152;2022-07-29T07:38:08;98379.34;;;25.89;41.25
41306;BME280;27051;50.376;19.152;2022-07-29T07:40:35;98385.31;;;26.00;41.45
41306;BME280;27051;50.376;19.152;2022-07-29T07:43:02;98386.34;;;26.06;40.72
41306;BME280;27051;50.376;19.152;2022-07-29T07:45:29;98386.38;;;25.98;40.45
41306;BME280;27051;50.376;19.152;2022-07-29T07:47:56;98388.63;;;25.87;40.71
41306;BME280;27051;50.376;19.152;2022-07-29T07:50:23;98387.41;;;25.80;40.73
41306;BME280;27051;50.376;19.152;2022-07-29T07:52:52;98387.45;;;25.88;41.18
41306;BME280;27051;50.376;19.152;2022-07-29T07:55:20;98385.84;;;26.03;40.99
41306;BME280;27051;50.376;19.152;2022-07-29T07:57:47;98384.16;;;26.14;41.05
41306;BME280;27051;50.376;19.152;2022-07-29T08:00:16;98386.74;;;26.34;40.40
41306;BME280;27051;50.376;19.152;2022-07-29T08:02:43;98376.78;;;26.45;39.71
41306;BME280;27051;50.376;19.152;2022-07-29T08:05:12;98380.95;;;26.57;40.41
41306;BME280;27051;50.376;19.152;2022-07-29T08:07:39;98376.55;;;26.73;40.00
41306;BME280;27051;50.376;19.152;2022-07-29T08:10:08;98380.41;;;26.88;39.65
41306;BME280;27051;50.376;19.152;2022-07-29T08:12:35;98373.89;;;27.08;39.68
41306;BME280;27051;50.376;19.152;2022-07-29T08:15:04;98376.95;;;27.35;39.29
41306;BME280;27051;50.376;19.152;2022-07-29T08:17:32;98376.78;;;27.52;37.86
41306;BME280;27051;50.376;19.152;2022-07-29T08:20:00;98376.92;;;27.48;38.73
41306;BME280;27051;50.376;19.152;2022-07-29T08:22:27;98377.16;;;27.41;38.76
41306;BME280;27051;50.376;19.152;2022-07-29T08:24:53;98370.92;;;27.32;38.38
41306;BME280;27051;50.376;19.152;2022-07-29T08:27:20;98376.80;;;27.21;38.64
41306;BME280;27051;50.376;19.152;2022-07-29T08:29:47;98372.43;;;27.16;38.53
41306;BME280;27051;50.376;19.152;2022-07-29T08:32:14;98376.57;;;27.16;38.14
41306;BME280;27051;50.376;19.152;2022-07-29T08:34:41;98378.36;;;27.22;38.68
41306;BME280;27051;50.376;19.152;2022-07-29T08:37:08;98379.87;;;27.36;38.80
41306;BME280;27051;50.376;19.152;2022-07-29T08:39:34;98380.92;;;27.52;38.63
41306;BME280;27051;50.376;19.152;2022-07-29T08:42:01;98377.31;;;27.59;38.10
41306;BME280;27051;50.376;19.152;2022-07-29T08:44:29;98374.36;;;27.71;38.34
41306;BME280;27051;50.376;19.152;2022-07-29T08:46:56;98368.52;;;27.91;38.20
41306;BME280;27051;50.376;19.152;2022-07-29T08:49:23;98369.44;;;28.10;38.09
41306;BME280;27051;50.376;19.152;2022-07-29T08:51:50;98373.36;;;28.26;37.67
41306;BME280;27051;50.376;19.152;2022-07-29T08:54:18;98371.30;;;28.40;37.25
41306;BME280;27051;50.376;19.152;2022-07-29T08:56:50;98365.52;;;28.47;37.20
41306;BME280;27051;50.376;19.152;2022-07-29T08:59:22;98370.18;;;28.59;36.58
41306;BME280;27051;50.376;19.152;2022-07-29T09:01:53;98370.85;;;28.68;36.73
41306;BME280;27051;50.376;19.152;2022-07-29T09:04:21;98369.80;;;28.79;36.50
41306;BME280;27051;50.376;19.152;2022-07-29T09:06:51;98376.00;;;28.88;35.88
41306;BME280;27051;50.376;19.152;2022-07-29T09:09:34;98370.54;;;29.06;36.63
41306;BME280;27051;50.376;19.152;2022-07-29T09:12:01;98377.96;;;29.32;36.46
41306;BME280;27051;50.376;19.152;2022-07-29T09:14:28;98374.91;;;29.53;35.73
41306;BME280;27051;50.376;19.152;2022-07-29T09:16:55;98366.94;;;29.83;35.93
41306;BME280;27051;50.376;19.152;2022-07-29T09:19:32;98370.61;;;30.07;35.26
41306;BME280;27051;50.376;19.152;2022-07-29T09:22:02;98358.70;;;30.35;34.86
41306;BME280;27051;50.376;19.152;2022-07-29T09:24:45;98371.70;;;30.66;34.65
41306;BME280;27051;50.376;19.152;2022-07-29T09:27:24;98366.17;;;31.00;34.45
41306;BME280;27051;50.376;19.152;2022-07-29T09:32:34;98359.30;;;31.63;33.92
41306;BME280;27051;50.376;19.152;2022-07-29T09:35:24;98356.45;;;31.87;33.51
41306;BME280;27051;50.376;19.152;2022-07-29T09:37:54;98361.61;;;32.13;32.81
41306;BME280;27051;50.376;19.152;2022-07-29T09:40:23;98348.24;;;32.37;32.80
41306;BME280;27051;50.376;19.152;2022-07-29T09:42:53;98350.05;;;32.40;32.01
41306;BME280;27051;50.376;19.152;2022-07-29T09:45:32;98349.04;;;32.48;32.45
41306;BME280;27051;50.376;19.152;2022-07-29T09:48:15;98349.20;;;32.74;32.17
41306;BME280;27051;50.376;19.152;2022-07-29T09:50:45;98343.36;;;33.07;31.39
41306;BME280;27051;50.376;19.152;2022-07-29T09:56:04;98343.05;;;34.13;30.88
41306;BME280;27051;50.376;19.152;2022-07-29T09:58:32;98344.39;;;34.55;30.66
41306;BME280;27051;50.376;19.152;2022-07-29T10:00:59;98331.55;;;34.85;29.51
41306;BME280;27051;50.376;19.152;2022-07-29T10:03:26;98339.60;;;35.14;29.22
41306;BME280;27051;50.376;19.152;2022-07-29T10:06:08;98322.48;;;35.22;28.80
41306;BME280;27051;50.376;19.152;2022-07-29T10:08:38;98330.03;;;35.38;28.34
41306;BME280;27051;50.376;19.152;2022-07-29T10:11:13;98335.23;;;35.35;28.90
41306;BME280;27051;50.376;19.152;2022-07-29T10:13:43;98321.42;;;35.09;28.39
41306;BME280;27051;50.376;19.152;2022-07-29T10:16:14;98318.84;;;34.62;28.26
41306;BME280;27051;50.376;19.152;2022-07-29T10:18:43;98321.39;;;34.50;28.25
41306;BME280;27051;50.376;19.152;2022-07-29T10:21:10;98315.81;;;34.50;28.35
41306;BME280;27051;50.376;19.152;2022-07-29T10:23:38;98314.00;;;34.25;28.54
41306;BME280;27051;50.376;19.152;2022-07-29T10:26:06;98317.84;;;34.12;28.31
41306;BME280;27051;50.376;19.152;2022-07-29T10:28:34;98310.49;;;34.30;28.44
41306;BME280;27051;50.376;19.152;2022-07-29T10:31:11;98310.49;;;34.30;28.44
41306;BME280;27051;50.376;19.152;2022-07-29T10:34:08;98313.35;;;34.42;28.45
41306;BME280;27051;50.376;19.152;2022-07-29T10:37:03;98298.22;;;34.54;27.94
41306;BME280;27051;50.376;19.152;2022-07-29T10:42:46;98312.61;;;34.25;28.15
41306;BME280;27051;50.376;19.152;2022-07-29T10:45:15;98312.61;;;34.25;28.15
41306;BME280;27051;50.376;19.152;2022-07-29T10:47:43;98294.55;;;33.79;28.00
41306;BME280;27051;50.376;19.152;2022-07-29T10:50:11;98307.06;;;33.53;28.08
41306;BME280;27051;50.376;19.152;2022-07-29T10:52:54;98310.02;;;33.43;28.19
41306;BME280;27051;50.376;19.152;2022-07-29T10:55:34;98313.48;;;33.69;28.31
41306;BME280;27051;50.376;19.152;2022-07-29T10:58:19;98306.08;;;34.18;27.94
41306;BME280;27051;50.376;19.152;2022-07-29T11:00:51;98303.81;;;34.75;27.97
41306;BME280;27051;50.376;19.152;2022-07-29T11:03:46;98293.42;;;35.69;27.17
41306;BME280;27051;50.376;19.152;2022-07-29T11:06:15;98299.68;;;36.58;26.69
41306;BME280;27051;50.376;19.152;2022-07-29T11:08:43;98295.97;;;37.37;26.05
41306;BME280;27051;50.376;19.152;2022-07-29T11:13:53;98296.20;;;38.22;25.10
41306;BME280;27051;50.376;19.152;2022-07-29T11:16:21;98290.45;;;38.21;25.04
41306;BME280;27051;50.376;19.152;2022-07-29T11:21:44;98296.97;;;37.69;24.54
41306;BME280;27051;50.376;19.152;2022-07-29T11:24:13;98291.98;;;37.22;24.88
41306;BME280;27051;50.376;19.152;2022-07-29T11:26:42;98287.45;;;37.02;25.02
41306;BME280;27051;50.376;19.152;2022-07-29T11:31:49;98277.34;;;36.87;25.21
41306;BME280;27051;50.376;19.152;2022-07-29T11:42:38;98280.33;;;35.26;25.78
41306;BME280;27051;50.376;19.152;2022-07-29T11:45:14;98274.11;;;34.94;26.10
41306;BME280;27051;50.376;19.152;2022-07-29T11:47:48;98277.87;;;34.91;26.28
41306;BME280;27051;50.376;19.152;2022-07-29T11:50:29;98281.17;;;34.84;26.18
41306;BME280;27051;50.376;19.152;2022-07-29T11:52:57;98278.11;;;34.82;26.48
41306;BME280;27051;50.376;19.152;2022-07-29T11:55:37;98278.58;;;34.74;26.29
41306;BME280;27051;50.376;19.152;2022-07-29T11:58:04;98279.35;;;34.80;26.23
41306;BME280;27051;50.376;19.152;2022-07-29T12:00:36;98280.04;;;35.13;26.44
41306;BME280;27051;50.376;19.152;2022-07-29T12:03:07;98276.27;;;35.65;26.35
41306;BME280;27051;50.376;19.152;2022-07-29T12:05:43;98275.14;;;36.46;26.26
41306;BME280;27051;50.376;19.152;2022-07-29T12:08:16;98276.18;;;37.71;25.23
41306;BME280;27051;50.376;19.152;2022-07-29T12:10:45;98280.52;;;38.51;24.93
41306;BME280;27051;50.376;19.152;2022-07-29T12:13:15;98268.47;;;39.12;24.05
41306;BME280;27051;50.376;19.152;2022-07-29T12:15:58;98265.55;;;39.48;23.61
41306;BME280;27051;50.376;19.152;2022-07-29T12:18:23;98266.66;;;40.17;22.56
41306;BME280;27051;50.376;19.152;2022-07-29T12:20:58;98271.52;;;40.68;22.34
41306;BME280;27051;50.376;19.152;2022-07-29T12:23:27;98273.13;;;40.44;22.15
41306;BME280;27051;50.376;19.152;2022-07-29T12:25:54;98268.92;;;40.11;22.32
41306;BME280;27051;50.376;19.152;2022-07-29T12:28:21;98273.31;;;39.68;22.20
41306;BME280;27051;50.376;19.152;2022-07-29T12:30:49;98269.38;;;39.20;22.29
41306;BME280;27051;50.376;19.152;2022-07-29T12:35:58;98274.19;;;38.69;22.42
41306;BME280;27051;50.376;19.152;2022-07-29T12:38:26;98279.69;;;38.43;22.73
41306;BME280;27051;50.376;19.152;2022-07-29T12:40:54;98281.30;;;38.33;23.12
41306;BME280;27051;50.376;19.152;2022-07-29T12:43:23;98271.73;;;38.05;22.81
41306;BME280;27051;50.376;19.152;2022-07-29T12:45:55;98266.97;;;37.58;23.17
41306;BME280;27051;50.376;19.152;2022-07-29T12:48:36;98267.16;;;37.19;23.57
41306;BME280;27051;50.376;19.152;2022-07-29T12:51:07;98263.42;;;36.94;23.84
41306;BME280;27051;50.376;19.152;2022-07-29T12:53:37;98273.98;;;36.60;24.28
41306;BME280;27051;50.376;19.152;2022-07-29T12:56:05;98271.72;;;36.30;24.18
41306;BME280;27051;50.376;19.152;2022-07-29T12:58:41;98271.59;;;36.01;24.71
41306;BME280;27051;50.376;19.152;2022-07-29T13:01:10;98276.27;;;35.77;24.75
41306;BME280;27051;50.376;19.152;2022-07-29T13:03:54;98275.83;;;35.51;25.18
41306;BME280;27051;50.376;19.152;2022-07-29T13:06:37;98274.61;;;35.19;25.35
41306;BME280;27051;50.376;19.152;2022-07-29T13:09:19;98269.17;;;34.99;25.77
41306;BME280;27051;50.376;19.152;2022-07-29T13:14:42;98254.31;;;34.97;25.86
41306;BME280;27051;50.376;19.152;2022-07-29T13:17:18;98259.89;;;35.25;25.84
41306;BME280;27051;50.376;19.152;2022-07-29T13:19:49;98262.69;;;35.25;26.30
41306;BME280;27051;50.376;19.152;2022-07-29T13:22:20;98263.08;;;35.28;26.33
41306;BME280;27051;50.376;19.152;2022-07-29T13:24:54;98256.62;;;35.32;26.32
41306;BME280;27051;50.376;19.152;2022-07-29T13:27:29;98255.80;;;35.09;26.50
41306;BME280;27051;50.376;19.152;2022-07-29T13:29:55;98255.80;;;35.09;26.50
41306;BME280;27051;50.376;19.152;2022-07-29T13:32:25;98234.95;;;34.83;26.58
41306;BME280;27051;50.376;19.152;2022-07-29T13:34:53;98247.48;;;34.71;26.71
41306;BME280;27051;50.376;19.152;2022-07-29T13:37:20;98242.11;;;35.16;26.85
41306;BME280;27051;50.376;19.152;2022-07-29T13:39:47;98228.36;;;35.79;26.51
41306;BME280;27051;50.376;19.152;2022-07-29T13:42:14;98225.56;;;36.24;26.06
41306;BME280;27051;50.376;19.152;2022-07-29T13:44:41;98218.52;;;36.87;25.55
41306;BME280;27051;50.376;19.152;2022-07-29T13:47:10;98213.38;;;36.68;25.40
41306;BME280;27051;50.376;19.152;2022-07-29T13:49:37;98207.59;;;36.38;25.58